createdAt,value
2023-02-26T00:00:21.366Z,52.44
2023-02-26T00:01:28.155Z,52.54
2023-02-26T00:02:30.228Z,52.66
2023-02-26T00:03:32.234Z,52.60
2023-02-26T00:04:34.053Z,52.62
2023-02-26T00:05:36.374Z,52.63
2023-02-26T00:06:52.527Z,52.71
2023-02-26T00:07:55.444Z,52.55
2023-02-26T00:08:57.403Z,52.69
2023-02-26T00:10:01.410Z,52.81
2023-02-26T00:11:07.178Z,52.78
2023-02-26T00:12:12.278Z,52.74
2023-02-26T00:13:14.212Z,52.77
2023-02-26T00:14:17.117Z,52.70
2023-02-26T00:15:19.370Z,52.70
2023-02-26T00:16:31.461Z,52.87
2023-02-26T00:17:43.066Z,52.92
2023-02-26T00:18:45.070Z,52.69
2023-02-26T00:19:47.005Z,52.69
2023-02-26T00:20:49.261Z,52.61
2023-02-26T00:21:51.333Z,52.62
2023-02-26T00:22:53.481Z,52.66
2023-02-26T00:23:56.301Z,52.70
2023-02-26T00:24:58.137Z,52.53
2023-02-26T00:25:59.921Z,52.54
2023-02-26T00:27:01.789Z,52.59
2023-02-26T00:28:03.946Z,52.68
2023-02-26T00:29:06.060Z,52.74
2023-02-26T00:30:09.431Z,52.77
2023-02-26T00:31:11.928Z,52.79
2023-02-26T00:32:14.427Z,52.87
2023-02-26T00:33:16.504Z,53.05
2023-02-26T00:34:18.439Z,53.11
2023-02-26T00:35:20.514Z,52.90
2023-02-26T00:36:25.429Z,52.95
2023-02-26T00:37:36.080Z,52.88
2023-02-26T00:38:38.126Z,52.87
2023-02-26T00:39:46.928Z,52.75
2023-02-26T00:40:53.353Z,52.85
2023-02-26T00:41:55.353Z,52.70
2023-02-26T00:42:57.369Z,52.66
2023-02-26T00:43:59.630Z,52.92
2023-02-26T00:45:01.962Z,52.96
2023-02-26T00:46:19.584Z,52.91
2023-02-26T00:47:33.869Z,52.69
2023-02-26T00:49:01.053Z,52.56
2023-02-26T00:50:14.644Z,52.67
2023-02-26T00:51:28.366Z,52.70
2023-02-26T00:52:39.739Z,52.60
2023-02-26T00:53:59.838Z,52.39
2023-02-26T00:55:01.620Z,52.55
2023-02-26T00:56:03.860Z,52.52
2023-02-26T00:57:06.809Z,52.41
2023-02-26T00:58:08.869Z,52.25
2023-02-26T00:59:10.717Z,52.25
2023-02-26T01:00:13.010Z,52.18
2023-02-26T01:01:14.945Z,52.26
2023-02-26T01:02:16.981Z,52.31
2023-02-26T01:03:19.168Z,52.33
2023-02-26T01:04:22.816Z,52.53
2023-02-26T01:05:25.038Z,52.32
2023-02-26T01:06:34.098Z,52.44
2023-02-26T01:07:44.321Z,52.58
2023-02-26T01:09:05.792Z,52.44
2023-02-26T01:10:08.632Z,52.33
2023-02-26T01:11:10.787Z,52.44
2023-02-26T01:12:13.365Z,52.63
2023-02-26T01:13:15.453Z,52.64
2023-02-26T01:14:18.100Z,52.67
2023-02-26T01:15:20.438Z,52.71
2023-02-26T01:16:26.513Z,52.71
2023-02-26T01:17:36.110Z,52.56
2023-02-26T01:18:44.813Z,52.63
2023-02-26T01:20:07.044Z,52.58
2023-02-26T01:21:15.912Z,52.64
2023-02-26T01:22:33.308Z,52.61
2023-02-26T01:23:47.933Z,52.75
2023-02-26T01:24:56.671Z,52.60
2023-02-26T01:26:02.491Z,52.36
2023-02-26T01:27:04.441Z,52.36
2023-02-26T01:28:06.666Z,52.47
2023-02-26T01:29:09.544Z,52.34
2023-02-26T01:30:11.784Z,52.13
2023-02-26T01:31:27.075Z,52.12
2023-02-26T01:32:36.723Z,51.94
2023-02-26T01:33:47.902Z,51.99
2023-02-26T01:35:02.434Z,52.13
2023-02-26T01:36:23.111Z,51.89
2023-02-26T01:37:31.514Z,51.90
2023-02-26T01:38:41.071Z,51.65
2023-02-26T01:40:11.590Z,51.64
2023-02-26T01:41:19.769Z,52.02
2023-02-26T01:42:27.807Z,51.57
2023-02-26T01:43:41.260Z,51.78
2023-02-26T01:44:55.680Z,51.70
2023-02-26T01:46:05.989Z,51.85
2023-02-26T01:47:29.048Z,51.96
2023-02-26T01:48:48.405Z,52.10
2023-02-26T01:49:50.693Z,52.03
2023-02-26T01:50:52.577Z,52.14
2023-02-26T01:51:58.040Z,52.12
2023-02-26T01:53:23.909Z,52.13
2023-02-26T01:54:33.305Z,52.03
2023-02-26T01:55:35.126Z,52.04
2023-02-26T01:56:37.492Z,52.34
2023-02-26T01:57:39.889Z,52.49
2023-02-26T01:58:42.088Z,52.18
2023-02-26T01:59:47.369Z,52.15
2023-02-26T02:00:49.377Z,52.27
2023-02-26T02:01:56.751Z,52.34
2023-02-26T02:02:58.786Z,52.35
2023-02-26T02:04:00.975Z,52.36
2023-02-26T02:05:12.554Z,52.50
2023-02-26T02:06:21.656Z,52.74
2023-02-26T02:07:23.575Z,52.62
2023-02-26T02:08:25.790Z,52.46
2023-02-26T02:09:27.693Z,52.43
2023-02-26T02:10:29.979Z,52.56
2023-02-26T02:11:32.201Z,52.50
2023-02-26T02:13:08.177Z,52.55
2023-02-26T02:14:09.986Z,52.61
2023-02-26T02:15:16.983Z,52.39
2023-02-26T02:16:21.525Z,52.53
2023-02-26T02:17:56.582Z,52.48
2023-02-26T02:19:24.701Z,52.65
2023-02-26T02:20:51.049Z,52.65
2023-02-26T02:22:26.359Z,52.80
2023-02-26T02:23:43.317Z,52.94
2023-02-26T02:25:21.269Z,53.03
2023-02-26T02:26:53.665Z,52.98
2023-02-26T02:28:06.346Z,53.12
2023-02-26T02:29:29.572Z,53.24
2023-02-26T02:30:53.380Z,53.14
2023-02-26T02:31:58.038Z,53.31
2023-02-26T02:33:16.580Z,53.23
2023-02-26T02:34:40.455Z,53.22
2023-02-26T02:35:48.690Z,53.26
2023-02-26T02:36:59.366Z,53.27
2023-02-26T02:38:16.420Z,53.33
2023-02-26T02:39:27.941Z,53.52
2023-02-26T02:40:33.998Z,53.38
2023-02-26T02:41:40.617Z,53.48
2023-02-26T02:42:55.530Z,53.40
2023-02-26T02:44:01.034Z,53.44
2023-02-26T02:45:15.686Z,53.45
2023-02-26T02:46:31.268Z,53.54
2023-02-26T02:47:37.700Z,53.37
2023-02-26T02:48:52.327Z,53.38
2023-02-26T02:50:27.070Z,53.19
2023-02-26T02:51:51.260Z,53.15
2023-02-26T02:53:01.698Z,53.15
2023-02-26T02:54:20.702Z,53.19
2023-02-26T02:55:27.549Z,53.32
2023-02-26T02:56:41.449Z,53.20
2023-02-26T02:58:29.963Z,52.95
2023-02-26T02:59:46.706Z,53.23
2023-02-26T03:00:56.359Z,53.34
2023-02-26T03:02:13.968Z,53.17
2023-02-26T03:03:28.195Z,53.38
2023-02-26T03:04:30.013Z,53.36
2023-02-26T03:05:31.971Z,53.26
2023-02-26T03:06:34.823Z,53.49
2023-02-26T03:07:53.604Z,53.49
2023-02-26T03:08:55.378Z,53.58
2023-02-26T03:09:57.217Z,53.42
2023-02-26T03:10:59.096Z,53.60
2023-02-26T03:12:00.953Z,53.75
2023-02-26T03:13:02.797Z,53.51
2023-02-26T03:14:06.219Z,53.46
2023-02-26T03:15:08.732Z,53.72
2023-02-26T03:16:40.384Z,53.78
2023-02-26T03:17:52.753Z,54.05
2023-02-26T03:18:54.834Z,54.00
2023-02-26T03:20:19.553Z,53.99
2023-02-26T03:21:31.927Z,53.84
2023-02-26T03:22:51.246Z,53.94
2023-02-26T03:23:55.945Z,54.03
2023-02-26T03:25:13.484Z,54.10
2023-02-26T03:26:33.167Z,53.99
2023-02-26T03:27:58.169Z,53.84
2023-02-26T03:29:13.586Z,53.96
2023-02-26T03:30:30.240Z,53.79
2023-02-26T03:31:55.739Z,54.03
2023-02-26T03:33:14.382Z,54.01
2023-02-26T03:34:26.366Z,54.07
2023-02-26T03:35:33.878Z,53.88
2023-02-26T03:36:43.776Z,54.05
2023-02-26T03:37:51.475Z,53.87
2023-02-26T03:39:15.253Z,54.03
2023-02-26T03:40:26.381Z,54.10
2023-02-26T03:41:37.878Z,54.35
2023-02-26T03:42:57.258Z,54.21
2023-02-26T03:44:03.760Z,54.35
2023-02-26T03:45:10.707Z,54.16
2023-02-26T03:46:18.416Z,54.46
2023-02-26T03:47:21.159Z,54.34
2023-02-26T03:48:27.498Z,54.46
2023-02-26T03:49:38.054Z,54.48
2023-02-26T03:50:57.663Z,54.44
2023-02-26T03:52:01.510Z,54.55
2023-02-26T03:53:07.997Z,54.60
2023-02-26T03:54:16.695Z,54.59
2023-02-26T03:55:42.847Z,54.59
2023-02-26T03:56:46.984Z,54.51
2023-02-26T03:57:50.042Z,54.43
2023-02-26T03:58:52.206Z,54.39
2023-02-26T03:59:54.467Z,54.09
2023-02-26T04:01:01.721Z,54.34
2023-02-26T04:02:08.795Z,54.31
2023-02-26T04:03:10.596Z,54.40
2023-02-26T04:04:17.753Z,54.13
2023-02-26T04:05:23.222Z,54.16
2023-02-26T04:06:26.244Z,54.14
2023-02-26T04:07:28.933Z,54.23
2023-02-26T04:08:31.606Z,54.40
2023-02-26T04:09:33.549Z,54.35
2023-02-26T04:10:42.989Z,54.18
2023-02-26T04:11:45.615Z,54.26
2023-02-26T04:12:47.863Z,54.49
2023-02-26T04:13:50.634Z,54.32
2023-02-26T04:14:52.461Z,54.21
2023-02-26T04:15:54.233Z,54.23
2023-02-26T04:16:56.298Z,54.24
2023-02-26T04:17:58.356Z,54.25
2023-02-26T04:19:00.203Z,54.46
2023-02-26T04:20:02.142Z,54.49
2023-02-26T04:21:04.609Z,54.63
2023-02-26T04:22:06.505Z,54.78
2023-02-26T04:23:08.440Z,54.96
2023-02-26T04:24:10.527Z,54.98
2023-02-26T04:25:12.376Z,55.06
2023-02-26T04:26:14.486Z,55.18
2023-02-26T04:27:16.438Z,55.06
2023-02-26T04:28:18.378Z,55.26
2023-02-26T04:29:20.235Z,55.33
2023-02-26T04:30:22.428Z,55.69
2023-02-26T04:31:24.380Z,55.79
2023-02-26T04:32:26.886Z,55.69
2023-02-26T04:33:28.722Z,55.78
2023-02-26T04:34:30.540Z,55.81
2023-02-26T04:35:33.675Z,55.76
2023-02-26T04:36:35.490Z,55.81
2023-02-26T04:37:37.663Z,55.98
2023-02-26T04:38:39.901Z,55.93
2023-02-26T04:39:42.615Z,56.14
2023-02-26T04:40:44.545Z,56.26
2023-02-26T04:41:46.614Z,56.13
2023-02-26T04:42:48.443Z,56.22
2023-02-26T04:43:50.297Z,56.31
2023-02-26T04:44:52.100Z,56.53
2023-02-26T04:45:53.983Z,56.61
2023-02-26T04:46:56.138Z,56.59
2023-02-26T04:47:58.009Z,56.66
2023-02-26T04:48:59.860Z,56.84
2023-02-26T04:50:02.189Z,57.02
2023-02-26T04:51:04.334Z,57.12
2023-02-26T04:52:06.279Z,57.14
2023-02-26T04:53:08.274Z,57.10
2023-02-26T04:54:10.101Z,57.19
2023-02-26T04:55:11.995Z,57.30
2023-02-26T04:56:14.361Z,57.40
2023-02-26T04:57:16.164Z,57.13
2023-02-26T04:58:18.000Z,57.20
2023-02-26T04:59:19.800Z,57.10
2023-02-26T05:00:22.228Z,57.16
2023-02-26T05:01:24.021Z,57.18
2023-02-26T05:02:25.994Z,57.04
2023-02-26T05:03:27.798Z,57.01
2023-02-26T05:04:29.632Z,57.04
2023-02-26T05:05:31.459Z,57.29
2023-02-26T05:06:33.637Z,57.28
2023-02-26T05:07:35.499Z,57.27
2023-02-26T05:08:42.304Z,57.20
2023-02-26T05:09:44.220Z,57.34
2023-02-26T05:10:46.476Z,57.42
2023-02-26T05:11:48.977Z,57.62
2023-02-26T05:12:50.927Z,57.80
2023-02-26T05:13:52.866Z,57.86
2023-02-26T05:14:54.711Z,58.02
2023-02-26T05:15:56.515Z,58.11
2023-02-26T05:16:58.545Z,58.10
2023-02-26T05:18:00.466Z,58.06
2023-02-26T05:19:02.303Z,58.16
2023-02-26T05:20:06.079Z,58.24
2023-02-26T05:21:08.125Z,58.09
2023-02-26T05:22:09.999Z,58.21
2023-02-26T05:23:11.742Z,58.15
2023-02-26T05:24:13.538Z,58.27
2023-02-26T05:25:15.406Z,58.32
2023-02-26T05:26:17.191Z,58.40
2023-02-26T05:27:18.987Z,58.72
2023-02-26T05:28:21.033Z,58.85
2023-02-26T05:29:23.084Z,58.82
2023-02-26T05:30:24.953Z,58.69
2023-02-26T05:31:27.283Z,58.76
2023-02-26T05:32:29.217Z,59.11
2023-02-26T05:33:31.020Z,59.04
2023-02-26T05:34:32.917Z,59.13
2023-02-26T05:35:34.702Z,59.32
2023-02-26T05:36:36.849Z,59.34
2023-02-26T05:37:39.179Z,59.34
2023-02-26T05:38:41.525Z,59.32
2023-02-26T05:39:43.375Z,59.34
2023-02-26T05:40:45.176Z,59.29
2023-02-26T05:41:48.067Z,59.15
2023-02-26T05:42:49.800Z,59.20
2023-02-26T05:43:51.658Z,59.30
2023-02-26T05:44:53.455Z,59.46
2023-02-26T05:45:55.694Z,59.51
2023-02-26T05:46:57.544Z,59.28
2023-02-26T05:47:59.479Z,59.57
2023-02-26T05:49:02.135Z,59.28
2023-02-26T05:50:06.005Z,59.20
2023-02-26T05:51:08.146Z,59.20
2023-02-26T05:52:09.911Z,59.29
2023-02-26T05:53:11.755Z,59.12
2023-02-26T05:54:13.537Z,59.10
2023-02-26T05:55:15.381Z,59.16
2023-02-26T05:56:17.916Z,59.02
2023-02-26T05:57:19.841Z,59.02
2023-02-26T05:58:21.927Z,58.94
2023-02-26T05:59:23.797Z,58.81
2023-02-26T06:00:25.751Z,58.79
2023-02-26T06:01:27.609Z,58.70
2023-02-26T06:02:29.406Z,58.86
2023-02-26T06:03:31.186Z,58.65
2023-02-26T06:04:33.214Z,58.57
2023-02-26T06:05:36.230Z,58.67
2023-02-26T06:06:38.332Z,58.78
2023-02-26T06:07:40.112Z,58.72
2023-02-26T06:08:42.964Z,58.60
2023-02-26T06:09:44.871Z,58.65
2023-02-26T06:10:47.029Z,58.42
2023-02-26T06:11:48.780Z,58.45
2023-02-26T06:12:50.568Z,58.42
2023-02-26T06:13:52.318Z,58.41
2023-02-26T06:14:54.207Z,58.36
2023-02-26T06:15:56.221Z,58.40
2023-02-26T06:16:57.996Z,58.54
2023-02-26T06:17:59.871Z,58.44
2023-02-26T06:19:02.845Z,58.44
2023-02-26T06:20:05.364Z,58.70
2023-02-26T06:21:07.268Z,58.72
2023-02-26T06:22:09.188Z,58.51
2023-02-26T06:23:10.940Z,58.39
2023-02-26T06:24:12.847Z,58.42
2023-02-26T06:25:14.745Z,58.30
2023-02-26T06:26:16.641Z,58.44
2023-02-26T06:27:18.474Z,58.58
2023-02-26T06:28:24.592Z,58.74
2023-02-26T06:29:26.603Z,58.67
2023-02-26T06:30:28.537Z,58.45
2023-02-26T06:31:30.510Z,58.29
2023-02-26T06:32:32.718Z,58.35
2023-02-26T06:33:34.548Z,58.48
2023-02-26T06:34:36.452Z,58.43
2023-02-26T06:35:38.447Z,58.54
2023-02-26T06:36:40.273Z,58.45
2023-02-26T06:37:42.186Z,58.39
2023-02-26T06:38:45.448Z,58.32
2023-02-26T06:39:47.245Z,58.24
2023-02-26T06:40:49.373Z,58.31
2023-02-26T06:41:51.282Z,58.42
2023-02-26T06:42:53.104Z,58.33
2023-02-26T06:43:54.918Z,58.39
2023-02-26T06:44:57.243Z,58.44
2023-02-26T06:46:00.269Z,58.17
2023-02-26T06:47:02.941Z,58.27
2023-02-26T06:48:04.821Z,58.38
2023-02-26T06:49:07.005Z,58.49
2023-02-26T06:50:10.297Z,58.37
2023-02-26T06:51:12.670Z,58.53
2023-02-26T06:52:14.932Z,58.59
2023-02-26T06:53:16.743Z,58.48
2023-02-26T06:54:18.581Z,58.33
2023-02-26T06:55:21.937Z,58.03
2023-02-26T06:56:24.397Z,57.71
2023-02-26T06:57:26.367Z,57.81
2023-02-26T06:58:28.220Z,57.55
2023-02-26T06:59:31.049Z,57.44
2023-02-26T07:00:32.856Z,57.60
2023-02-26T07:01:34.732Z,57.64
2023-02-26T07:02:37.048Z,57.46
2023-02-26T07:03:39.482Z,57.45
2023-02-26T07:04:41.520Z,57.30
2023-02-26T07:05:44.907Z,57.29
2023-02-26T07:06:46.795Z,57.30
2023-02-26T07:07:48.592Z,57.06
2023-02-26T07:08:50.397Z,57.01
2023-02-26T07:09:52.280Z,57.14
2023-02-26T07:10:54.197Z,57.08
2023-02-26T07:11:56.041Z,56.95
2023-02-26T07:12:57.805Z,56.90
2023-02-26T07:14:01.070Z,57.00
2023-02-26T07:15:02.942Z,57.08
2023-02-26T07:16:07.338Z,57.21
2023-02-26T07:17:09.805Z,57.39
2023-02-26T07:18:11.803Z,57.47
2023-02-26T07:19:13.723Z,57.53
2023-02-26T07:20:16.356Z,57.83
2023-02-26T07:21:18.172Z,57.85
2023-02-26T07:22:22.082Z,57.90
2023-02-26T07:23:24.159Z,58.13
2023-02-26T07:24:26.041Z,58.27
2023-02-26T07:25:27.931Z,58.35
2023-02-26T07:26:29.867Z,58.26
2023-02-26T07:27:33.424Z,58.30
2023-02-26T07:28:35.778Z,58.54
2023-02-26T07:29:37.737Z,58.76
2023-02-26T07:30:42.573Z,58.68
2023-02-26T07:31:44.729Z,58.87
2023-02-26T07:32:46.597Z,59.02
2023-02-26T07:33:48.410Z,59.02
2023-02-26T07:34:50.220Z,59.22
2023-02-26T07:35:52.108Z,59.47
2023-02-26T07:36:54.041Z,59.59
2023-02-26T07:37:55.894Z,59.44
2023-02-26T07:38:57.813Z,59.53
2023-02-26T07:39:59.543Z,59.54
2023-02-26T07:41:01.437Z,59.37
2023-02-26T07:42:03.374Z,59.39
2023-02-26T07:43:05.148Z,59.48
2023-02-26T07:44:07.226Z,59.65
2023-02-26T07:45:09.522Z,59.63
2023-02-26T07:46:11.362Z,59.53
2023-02-26T07:47:13.655Z,59.48
2023-02-26T07:48:17.614Z,59.50
2023-02-26T07:49:20.310Z,59.50
2023-02-26T07:50:24.970Z,59.54
2023-02-26T07:51:27.107Z,59.60
2023-02-26T07:52:29.474Z,59.21
2023-02-26T07:53:31.307Z,59.20
2023-02-26T07:54:33.106Z,59.13
2023-02-26T07:55:35.019Z,59.19
2023-02-26T07:56:37.034Z,59.45
2023-02-26T07:57:39.462Z,59.16
2023-02-26T07:58:41.641Z,59.09
2023-02-26T07:59:43.607Z,58.92
2023-02-26T08:00:45.481Z,59.05
2023-02-26T08:01:47.455Z,59.03
2023-02-26T08:02:49.366Z,59.15
2023-02-26T08:03:51.318Z,59.10
2023-02-26T08:04:53.231Z,59.12
2023-02-26T08:05:55.001Z,58.74
2023-02-26T08:06:57.765Z,58.48
2023-02-26T08:08:02.043Z,58.57
2023-02-26T08:09:05.420Z,58.49
2023-02-26T08:10:08.141Z,58.67
2023-02-26T08:11:10.084Z,58.33
2023-02-26T08:12:12.330Z,58.31
2023-02-26T08:13:14.514Z,58.37
2023-02-26T08:14:16.360Z,58.18
2023-02-26T08:15:18.180Z,57.94
2023-02-26T08:16:20.393Z,57.94
2023-02-26T08:17:22.194Z,58.06
2023-02-26T08:18:24.285Z,57.91
2023-02-26T08:19:26.119Z,57.85
2023-02-26T08:20:28.068Z,58.21
2023-02-26T08:21:30.017Z,58.56
2023-02-26T08:22:31.922Z,58.73
2023-02-26T08:23:33.743Z,58.68
2023-02-26T08:24:35.649Z,58.03
2023-02-26T08:25:37.445Z,57.66
2023-02-26T08:26:39.497Z,57.45
2023-02-26T08:27:41.347Z,57.80
2023-02-26T08:28:43.441Z,57.63
2023-02-26T08:29:46.378Z,57.22
2023-02-26T08:30:48.640Z,57.15
2023-02-26T08:31:51.311Z,57.40
2023-02-26T08:32:53.402Z,57.59
2023-02-26T08:33:55.244Z,57.56
2023-02-26T08:34:57.215Z,57.29
2023-02-26T08:35:59.285Z,56.68
2023-02-26T08:37:01.156Z,56.69
2023-02-26T08:38:02.975Z,57.05
2023-02-26T08:39:05.449Z,57.30
2023-02-26T08:40:09.288Z,57.48
2023-02-26T08:41:11.175Z,57.52
2023-02-26T08:42:16.321Z,57.07
2023-02-26T08:43:19.383Z,57.05
2023-02-26T08:44:21.169Z,57.18
2023-02-26T08:45:23.025Z,56.78
2023-02-26T08:46:25.716Z,56.35
2023-02-26T08:47:29.201Z,56.25
2023-02-26T08:48:32.189Z,56.77
2023-02-26T08:49:34.005Z,56.96
2023-02-26T08:50:36.016Z,57.33
2023-02-26T08:51:37.967Z,57.50
2023-02-26T08:52:40.166Z,57.29
2023-02-26T08:53:42.126Z,56.89
2023-02-26T08:54:44.174Z,56.64
2023-02-26T08:55:52.774Z,56.58
2023-02-26T08:56:55.941Z,56.03
2023-02-26T08:57:57.868Z,55.77
2023-02-26T08:58:59.761Z,55.38
2023-02-26T09:00:01.683Z,55.51
2023-02-26T09:01:06.501Z,55.41
2023-02-26T09:02:10.873Z,55.80
2023-02-26T09:03:13.393Z,55.30
2023-02-26T09:04:15.448Z,55.96
2023-02-26T09:05:18.145Z,55.60
2023-02-26T09:06:20.061Z,56.11
2023-02-26T09:07:21.819Z,55.36
2023-02-26T09:08:23.797Z,55.47
2023-02-26T09:09:25.610Z,56.04
2023-02-26T09:10:27.981Z,55.98
2023-02-26T09:11:30.825Z,55.54
2023-02-26T09:12:33.121Z,55.62
2023-02-26T09:13:35.453Z,54.86
2023-02-26T09:14:37.298Z,54.78
2023-02-26T09:15:39.299Z,55.06
2023-02-26T09:16:41.241Z,54.85
2023-02-26T09:17:43.170Z,54.87
2023-02-26T09:18:45.067Z,55.03
2023-02-26T09:19:47.000Z,54.90
2023-02-26T09:20:49.382Z,54.59
2023-02-26T09:21:51.248Z,54.76
2023-02-26T09:22:53.146Z,54.71
2023-02-26T09:23:54.971Z,54.58
2023-02-26T09:24:57.470Z,54.52
2023-02-26T09:25:59.397Z,54.54
2023-02-26T09:27:03.544Z,54.70
2023-02-26T09:28:06.299Z,54.59
2023-02-26T09:29:08.206Z,54.28
2023-02-26T09:30:11.160Z,54.37
2023-02-26T09:31:13.164Z,54.60
2023-02-26T09:32:15.121Z,55.00
2023-02-26T09:33:17.027Z,55.39
2023-02-26T09:34:20.488Z,55.67
2023-02-26T09:35:22.510Z,55.76
2023-02-26T09:36:24.627Z,55.62
2023-02-26T09:37:26.694Z,55.21
2023-02-26T09:38:28.789Z,55.23
2023-02-26T09:39:30.521Z,55.35
2023-02-26T09:40:54.002Z,55.15
2023-02-26T09:42:00.009Z,55.59
2023-02-26T09:43:26.856Z,55.52
2023-02-26T09:44:31.192Z,55.95
2023-02-26T09:45:44.411Z,55.72
2023-02-26T09:47:09.364Z,55.89
2023-02-26T09:48:15.154Z,56.44
2023-02-26T09:49:31.432Z,56.30
2023-02-26T09:50:42.465Z,56.30
2023-02-26T09:51:48.101Z,56.79
2023-02-26T09:52:55.860Z,56.50
2023-02-26T09:54:00.949Z,56.91
2023-02-26T09:55:34.868Z,57.20
2023-02-26T09:56:39.362Z,57.37
2023-02-26T09:57:47.153Z,57.18
2023-02-26T09:58:50.565Z,57.15
2023-02-26T09:59:52.411Z,57.30
2023-02-26T10:01:12.795Z,57.33
2023-02-26T10:03:02.806Z,57.31
2023-02-26T10:04:38.802Z,57.54
2023-02-26T10:06:06.174Z,58.51
2023-02-26T10:07:17.261Z,58.58
2023-02-26T10:08:19.981Z,58.48
2023-02-26T10:09:21.962Z,58.57
2023-02-26T10:10:51.535Z,58.51
2023-02-26T10:12:00.367Z,58.78
2023-02-26T10:13:02.765Z,58.88
2023-02-26T10:14:15.545Z,59.20
2023-02-26T10:15:26.185Z,59.10
2023-02-26T10:16:32.462Z,58.94
2023-02-26T10:17:42.531Z,59.44
2023-02-26T10:18:53.081Z,59.71
2023-02-26T10:20:01.386Z,59.71
2023-02-26T10:21:27.867Z,59.03
2023-02-26T10:22:43.719Z,59.30
2023-02-26T10:23:50.866Z,59.48
2023-02-26T10:25:06.958Z,59.72
2023-02-26T10:26:08.824Z,59.80
2023-02-26T10:27:16.454Z,59.91
2023-02-26T10:28:48.533Z,59.41
2023-02-26T10:29:59.879Z,59.90
2023-02-26T10:31:29.664Z,59.82
2023-02-26T10:32:43.396Z,59.69
2023-02-26T10:33:57.504Z,59.90
2023-02-26T10:35:04.364Z,59.81
2023-02-26T10:36:19.249Z,59.89
2023-02-26T10:37:42.395Z,60.17
2023-02-26T10:38:48.187Z,59.80
2023-02-26T10:40:11.680Z,59.82
2023-02-26T10:41:16.370Z,60.77
2023-02-26T10:42:29.409Z,60.31
2023-02-26T10:43:33.354Z,60.35
2023-02-26T10:44:45.819Z,59.72
2023-02-26T10:46:05.843Z,59.82
2023-02-26T10:47:14.033Z,59.26
2023-02-26T10:48:50.059Z,58.90
2023-02-26T10:50:19.385Z,58.82
2023-02-26T10:51:26.150Z,59.31
2023-02-26T10:52:32.573Z,59.02
2023-02-26T10:53:34.777Z,58.47
2023-02-26T10:54:41.843Z,57.85
2023-02-26T10:55:52.221Z,57.42
2023-02-26T10:56:54.055Z,57.65
2023-02-26T10:58:25.562Z,57.74
2023-02-26T10:59:27.934Z,56.90
2023-02-26T11:00:30.098Z,56.86
2023-02-26T11:01:39.381Z,55.80
2023-02-26T11:02:44.975Z,54.86
2023-02-26T11:04:11.273Z,55.17
2023-02-26T11:05:29.806Z,55.00
2023-02-26T11:06:36.387Z,55.01
2023-02-26T11:07:39.785Z,55.33
2023-02-26T11:08:45.289Z,55.16
2023-02-26T11:09:47.348Z,54.76
2023-02-26T11:10:52.445Z,54.79
2023-02-26T11:12:04.762Z,55.12
2023-02-26T11:13:06.517Z,54.98
2023-02-26T11:14:09.596Z,55.08
2023-02-26T11:15:20.888Z,54.98
2023-02-26T11:16:23.105Z,55.00
2023-02-26T11:17:32.423Z,55.33
2023-02-26T11:18:45.270Z,55.42
2023-02-26T11:19:53.588Z,55.76
2023-02-26T11:20:58.631Z,55.88
2023-02-26T11:22:04.916Z,55.54
2023-02-26T11:23:12.454Z,55.51
2023-02-26T11:24:29.186Z,55.80
2023-02-26T11:25:34.954Z,56.11
2023-02-26T11:26:39.256Z,56.17
2023-02-26T11:27:43.535Z,56.41
2023-02-26T11:28:48.895Z,55.68
2023-02-26T11:29:57.188Z,55.82
2023-02-26T11:31:02.550Z,55.76
2023-02-26T11:32:05.996Z,55.13
2023-02-26T11:33:17.827Z,55.40
2023-02-26T11:34:24.036Z,55.66
2023-02-26T11:35:26.639Z,55.35
2023-02-26T11:36:32.068Z,54.77
2023-02-26T11:37:42.318Z,54.72
2023-02-26T11:38:53.736Z,54.74
2023-02-26T11:39:58.620Z,55.17
2023-02-26T11:41:01.556Z,55.47
2023-02-26T11:42:04.087Z,55.44
2023-02-26T11:43:11.070Z,55.80
2023-02-26T11:44:15.619Z,55.47
2023-02-26T11:45:19.360Z,54.63
2023-02-26T11:46:25.191Z,54.49
2023-02-26T11:47:30.632Z,54.73
2023-02-26T11:48:47.361Z,55.14
2023-02-26T11:49:54.181Z,55.39
2023-02-26T11:51:01.037Z,55.29
2023-02-26T11:52:07.293Z,55.34
2023-02-26T11:53:24.574Z,55.58
2023-02-26T11:54:28.753Z,55.55
2023-02-26T11:55:37.438Z,55.66
2023-02-26T11:56:42.103Z,55.35
2023-02-26T11:57:43.982Z,55.01
2023-02-26T11:58:46.766Z,55.08
2023-02-26T11:59:51.382Z,54.32
2023-02-26T12:00:54.084Z,54.59
2023-02-26T12:01:56.406Z,54.47
2023-02-26T12:03:09.002Z,54.60
2023-02-26T12:04:13.590Z,54.21
2023-02-26T12:05:17.771Z,54.47
2023-02-26T12:06:22.597Z,54.72
2023-02-26T12:07:24.543Z,55.07
2023-02-26T12:08:38.625Z,55.35
2023-02-26T12:09:41.038Z,55.58
2023-02-26T12:10:58.016Z,55.75
2023-02-26T12:12:21.271Z,55.39
2023-02-26T12:13:46.908Z,55.50
2023-02-26T12:15:04.431Z,55.20
2023-02-26T12:16:26.396Z,55.13
2023-02-26T12:18:04.044Z,55.26
2023-02-26T12:19:36.308Z,54.72
2023-02-26T12:20:48.022Z,54.93
2023-02-26T12:21:59.194Z,55.13
2023-02-26T12:23:16.503Z,55.62
2023-02-26T12:24:38.868Z,55.63
2023-02-26T12:26:00.203Z,55.13
2023-02-26T12:27:21.119Z,54.77
2023-02-26T12:28:36.144Z,54.19
2023-02-26T12:30:03.341Z,54.19
2023-02-26T12:31:27.347Z,54.38
2023-02-26T12:32:36.544Z,54.01
2023-02-26T12:34:06.295Z,53.27
2023-02-26T12:35:55.702Z,52.68
2023-02-26T12:37:12.865Z,52.95
2023-02-26T12:42:18.633Z,52.88
2023-02-26T12:43:26.410Z,53.02
2023-02-26T12:44:48.106Z,51.36
2023-02-26T12:46:14.494Z,51.76
2023-02-26T12:47:44.396Z,51.60
2023-02-26T12:48:55.157Z,51.58
2023-02-26T12:50:21.824Z,51.46
2023-02-26T12:51:43.177Z,51.10
2023-02-26T12:52:51.341Z,50.56
2023-02-26T12:53:59.382Z,50.68
2023-02-26T12:55:19.381Z,50.78
2023-02-26T12:56:23.930Z,50.50
2023-02-26T12:57:50.963Z,50.84
2023-02-26T12:59:36.569Z,50.86
2023-02-26T13:00:47.215Z,50.87
2023-02-26T13:02:33.363Z,51.26
2023-02-26T13:03:52.564Z,50.72
2023-02-26T13:04:56.880Z,50.97
2023-02-26T13:06:16.522Z,50.87
2023-02-26T13:07:38.615Z,50.53
2023-02-26T13:08:43.685Z,49.31
2023-02-26T13:09:58.186Z,49.39
2023-02-26T13:11:24.741Z,49.36
2023-02-26T13:12:52.562Z,48.93
2023-02-26T13:14:16.406Z,48.87
2023-02-26T13:15:43.852Z,48.08
2023-02-26T13:17:01.193Z,48.50
2023-02-26T13:18:11.623Z,48.96
2023-02-26T13:19:24.082Z,49.48
2023-02-26T13:20:29.197Z,49.45
2023-02-26T13:21:37.811Z,49.28
2023-02-26T13:22:46.144Z,49.19
2023-02-26T13:24:05.498Z,48.70
2023-02-26T13:25:21.957Z,48.69
2023-02-26T13:26:26.632Z,48.82
2023-02-26T13:27:33.152Z,48.65
2023-02-26T13:28:40.319Z,48.20
2023-02-26T13:29:48.706Z,48.38
2023-02-26T13:30:53.879Z,47.55
2023-02-26T13:32:02.114Z,47.62
2023-02-26T13:33:04.510Z,47.70
2023-02-26T13:34:13.928Z,47.99
2023-02-26T13:35:22.181Z,47.69
2023-02-26T13:36:25.973Z,47.99
2023-02-26T13:37:32.174Z,48.43
2023-02-26T13:38:52.514Z,48.94
2023-02-26T13:39:54.491Z,49.03
2023-02-26T13:41:05.914Z,49.49
2023-02-26T13:42:28.369Z,48.82
2023-02-26T13:43:39.249Z,48.69
2023-02-26T13:44:57.290Z,48.66
2023-02-26T13:46:05.009Z,48.56
2023-02-26T13:47:24.896Z,48.62
2023-02-26T13:48:48.385Z,49.54
2023-02-26T13:49:59.796Z,49.33
2023-02-26T13:51:29.517Z,49.38
2023-02-26T13:52:35.421Z,48.43
2023-02-26T13:53:37.195Z,48.21
2023-02-26T13:54:46.150Z,48.31
2023-02-26T13:55:49.271Z,48.97
2023-02-26T13:57:25.907Z,48.04
2023-02-26T13:58:36.948Z,46.94
2023-02-26T13:59:42.142Z,47.52
2023-02-26T14:00:58.118Z,47.72
2023-02-26T14:02:36.283Z,47.46
2023-02-26T14:04:07.479Z,47.08
2023-02-26T14:05:31.319Z,47.06
2023-02-26T14:06:41.144Z,47.20
2023-02-26T14:07:49.683Z,47.49
2023-02-26T14:08:55.579Z,47.22
2023-02-26T14:10:02.433Z,47.30
2023-02-26T14:11:06.539Z,47.49
2023-02-26T14:12:14.105Z,46.67
2023-02-26T14:13:22.357Z,46.01
2023-02-26T14:14:39.854Z,45.61
2023-02-26T14:16:11.248Z,45.56
2023-02-26T14:17:13.622Z,45.92
2023-02-26T14:18:31.464Z,45.99
2023-02-26T14:19:34.580Z,46.19
2023-02-26T14:20:36.406Z,45.77
2023-02-26T14:22:18.281Z,45.74
2023-02-26T14:23:36.960Z,45.34
2023-02-26T14:24:53.968Z,43.88
2023-02-26T14:26:04.769Z,43.49
2023-02-26T14:27:13.426Z,44.01
2023-02-26T14:28:25.018Z,44.11
2023-02-26T14:29:57.997Z,44.32
2023-02-26T14:30:59.934Z,44.35
2023-02-26T14:32:15.738Z,44.46
2023-02-26T14:33:19.363Z,44.74
2023-02-26T14:34:24.878Z,44.97